This is the latest recevied weather packets stored in our database for station/object OM6ABF-11. If no packets are shown the sender has not sent any weather packets the latest 10 day(s).
| Time | Temp. | Humidity | Pressure | Rain* | Wind** | Luminosity | Snow |
|---|---|---|---|---|---|---|---|
| 1778028707 | 12.22° C | 63% | 1011 hPa | - | - | - | - |
| 1778027807 | 12.22° C | 62% | 1011.1 hPa | - | - | - | - |
| 1778026908 | 12.78° C | 61% | 1011 hPa | - | - | - | - |
| 1778026009 | 12.78° C | 60% | 1010.9 hPa | - | - | - | - |
| 1778025110 | 12.78° C | 59% | 1011 hPa | - | - | - | - |
| 1778024210 | 12.78° C | 57% | 1011 hPa | - | - | - | - |
| 1778023311 | 13.33° C | 55% | 1011 hPa | - | - | - | - |
| 1778022413 | 13.33° C | 56% | 1011.1 hPa | - | - | - | - |
| 1778021514 | 13.89° C | 53% | 1011 hPa | - | - | - | - |
| 1778020615 | 13.33° C | 54% | 1011 hPa | - | - | - | - |
| 1778019716 | 12.78° C | 55% | 1011 hPa | - | - | - | - |
| 1778018817 | 13.33° C | 53% | 1011.1 hPa | - | - | - | - |
| 1778017917 | 13.89° C | 51% | 1011.1 hPa | - | - | - | - |
| 1778017017 | 13.89° C | 51% | 1011.1 hPa | - | - | - | - |
| 1778016118 | 13.89° C | 51% | 1011.3 hPa | - | - | - | - |
| 1778015219 | 13.89° C | 50% | 1011.4 hPa | - | - | - | - |
| 1778014319 | 13.33° C | 51% | 1011.4 hPa | - | - | - | - |
| 1778013421 | 13.89° C | 50% | 1011.4 hPa | - | - | - | - |
| 1778012521 | 13.89° C | 50% | 1011.5 hPa | - | - | - | - |
| 1778011622 | 13.89° C | 50% | 1011.4 hPa | - | - | - | - |
| 1778009823 | 15° C | 45% | 1011.5 hPa | - | - | - | - |
| 1778008924 | 16.67° C | 41% | 1011.4 hPa | - | - | - | - |
| 1778008025 | 17.22° C | 39% | 1011.2 hPa | - | - | - | - |
| 1778007126 | 17.78° C | 38% | 1011 hPa | - | - | - | - |
| 1778006225 | 17.78° C | 39% | 1010.8 hPa | - | - | - | - |
* Rain since midnight (hover to see other rain measurements)
** Current wind speed in m/s (hover to see current wind gust speed)